Time;durP1;ratioP1;P1;durP2;ratioP2;P2;SDS_P1;SDS_P2;PMS_P1;PMS_P2;Temp;Humidity;BMP_temperature;BMP_pressure;BME280_temperature;BME280_humidity;BME280_pressure;Samples;Min_cycle;Max_cycle;Signal;HPM_P1;HPM_P2
2020/12/30 00:00:16;;;;;;;;;;;;;;;1.55;99.11;99057.50;6228518;22;20308;-76
2020/12/30 00:02:41;;;;;;;;;;;;;;;1.56;99.06;99059.16;6280676;22;19970;-75
2020/12/30 00:05:07;;;;;;;;;;;;;;;1.59;98.88;99065.16;6228739;22;19954;-76
2020/12/30 00:07:33;;;;;;;;;;;;;;;1.59;98.84;99065.16;6203162;22;19907;-75
2020/12/30 00:09:58;;;;;;;;;;;;;;;1.59;98.89;99073.38;6202930;22;19917;-76
2020/12/30 00:12:27;;;;;;;;;;;;;;;1.57;98.86;99084.63;6253563;22;19930;-76
2020/12/30 00:14:53;;;;;;;;;;;;;;;1.57;98.77;99084.63;6253667;22;19986;-76
2020/12/30 00:17:18;;;;;;;;;;;;;;;1.53;98.88;99087.06;6280756;22;19965;-75
2020/12/30 00:19:43;;;;;;;;;;;;;;;1.54;99.04;99091.44;6280654;22;19919;-76
2020/12/30 00:22:09;;;;;;;;;;;;;;;1.55;99.24;99093.06;6228098;22;20405;-76
2020/12/30 00:24:34;;;;;;;;;;;;;;;1.58;99.41;99096.38;6202560;22;19907;-75
2020/12/30 00:27:02;;;;;;;;;;;;;;;1.56;99.47;99094.75;6203332;22;20425;-76
2020/12/30 00:29:27;;;;;;;;;;;;;;;1.59;99.65;99098.00;6228219;22;19903;-76
2020/12/30 00:31:52;;;;;;;;;;;;;;;1.57;99.59;99090.09;6228241;22;19903;-76
2020/12/30 00:34:18;;;;;;;;;;;;;;;1.54;100.00;99099.66;6227874;22;19981;-76
2020/12/30 00:36:43;;;;;;;;;;;;;;;1.60;99.64;99105.16;6228325;22;20316;-76
2020/12/30 00:39:09;;;;;;;;;;;;;;;1.62;99.53;99114.72;6228297;22;19907;-75
2020/12/30 00:41:34;;;;;;;;;;;;;;;1.59;99.40;99112.53;6227473;22;19914;-76
2020/12/30 00:44:00;;;;;;;;;;;;;;;1.60;99.30;99121.56;6228189;22;19903;-76
2020/12/30 00:46:25;;;;;;;;;;;;;;;1.62;99.24;99119.38;6227986;22;19902;-76
2020/12/30 00:48:50;;;;;;;;;;;;;;;1.59;98.97;99114.44;6280650;22;19903;-76
2020/12/30 00:51:15;;;;;;;;;;;;;;;1.60;98.88;99125.13;6253320;22;19910;-76
2020/12/30 00:53:41;;;;;;;;;;;;;;;1.56;98.93;99124.84;6253116;22;19910;-76
2020/12/30 00:56:07;;;;;;;;;;;;;;;1.59;98.65;99128.97;6280026;22;19929;-76
2020/12/30 00:58:32;;;;;;;;;;;;;;;1.60;98.63;99137.97;6280419;22;19994;-76
2020/12/30 01:00:58;;;;;;;;;;;;;;;1.53;98.81;99135.47;6252843;22;19911;-76
2020/12/30 01:03:23;;;;;;;;;;;;;;;1.50;98.78;99149.69;6253204;22;20304;-76
2020/12/30 01:05:48;;;;;;;;;;;;;;;1.49;98.77;99139.84;6280420;22;19903;-76
2020/12/30 01:08:13;;;;;;;;;;;;;;;1.48;98.75;99140.97;6252779;22;19915;-75
2020/12/30 01:10:39;;;;;;;;;;;;;;;1.48;98.71;99147.25;6252521;22;19903;-76
2020/12/30 01:13:04;;;;;;;;;;;;;;;1.45;98.66;99147.78;6253095;22;19980;-75
2020/12/30 01:15:30;;;;;;;;;;;;;;;1.42;98.68;99158.41;6227636;22;19910;-75
2020/12/30 01:17:55;;;;;;;;;;;;;;;1.39;98.69;99148.84;6280392;22;19918;-76
2020/12/30 01:20:20;;;;;;;;;;;;;;;1.36;98.91;99154.03;6227430;22;20375;-76
2020/12/30 01:22:45;;;;;;;;;;;;;;;1.36;98.86;99154.03;6279610;22;19904;-76
2020/12/30 01:25:11;;;;;;;;;;;;;;;1.35;98.91;99169.63;6252705;22;19910;-75
2020/12/30 01:27:36;;;;;;;;;;;;;;;1.33;98.85;99180.00;6280028;22;19903;-76
2020/12/30 01:30:01;;;;;;;;;;;;;;;1.34;98.81;99178.94;6253059;22;19910;-76
2020/12/30 01:32:27;;;;;;;;;;;;;;;1.33;98.71;99183.53;6279488;22;20236;-76
2020/12/30 01:34:52;;;;;;;;;;;;;;;1.33;98.78;99188.19;6279353;22;19903;-76
2020/12/30 01:37:17;;;;;;;;;;;;;;;1.31;98.96;99191.22;6227888;22;19910;-76
2020/12/30 01:39:43;;;;;;;;;;;;;;;1.32;99.10;99195.59;6278885;22;19929;-76
2020/12/30 01:42:08;;;;;;;;;;;;;;;1.35;99.18;99202.44;6252554;22;19903;-76
2020/12/30 01:44:33;;;;;;;;;;;;;;;1.36;99.09;99206.81;6227446;22;19918;-76
2020/12/30 01:46:59;;;;;;;;;;;;;;;1.35;99.41;99207.91;6280132;22;19910;-76
2020/12/30 01:49:25;;;;;;;;;;;;;;;1.37;99.50;99213.13;6279610;22;19956;-75
2020/12/30 01:51:52;;;;;;;;;;;;;;;1.38;99.78;99207.38;6279325;22;19932;-76
2020/12/30 01:54:17;;;;;;;;;;;;;;;1.41;100.00;99206.03;6227224;22;19925;-76
2020/12/30 01:56:43;;;;;;;;;;;;;;;1.44;100.00;99216.44;6252609;22;20338;-76
2020/12/30 01:59:09;;;;;;;;;;;;;;;1.46;100.00;99225.22;6227695;22;19907;-76
2020/12/30 02:01:38;;;;;;;;;;;;;;;1.49;100.00;99221.94;6252442;22;20239;-76
2020/12/30 02:04:07;;;;;;;;;;;;;;;1.52;100.00;99226.88;6252497;22;19965;-75
2020/12/30 02:06:32;;;;;;;;;;;;;;;1.54;100.00;99243.88;6279485;22;19929;-76
2020/12/30 02:08:58;;;;;;;;;;;;;;;1.58;100.00;99252.34;6226997;22;19938;-76
2020/12/30 02:11:24;;;;;;;;;;;;;;;1.61;100.00;99255.38;6226730;22;19926;-76
2020/12/30 02:13:58;;;;;;;;;;;;;;;1.63;100.00;99253.22;6252508;22;19906;-75
2020/12/30 02:16:23;;;;;;;;;;;;;;;1.65;100.00;99244.75;6227543;22;19902;-75
2020/12/30 02:18:48;;;;;;;;;;;;;;;1.70;100.00;99247.47;6251908;22;20281;-76
2020/12/30 02:21:14;;;;;;;;;;;;;;;1.71;100.00;99262.84;6252277;22;19914;-75
2020/12/30 02:23:39;;;;;;;;;;;;;;;1.71;100.00;99271.03;6252179;22;19952;-76
2020/12/30 02:26:04;;;;;;;;;;;;;;;1.73;100.00;99279.81;6227456;22;19903;-76
2020/12/30 02:28:30;;;;;;;;;;;;;;;1.73;100.00;99277.09;6227293;22;19903;-76
2020/12/30 02:30:55;;;;;;;;;;;;;;;1.70;100.00;99280.31;6279148;22;19904;-75
2020/12/30 02:33:20;;;;;;;;;;;;;;;1.69;99.81;99289.63;6251302;22;20339;-76
2020/12/30 02:35:46;;;;;;;;;;;;;;;1.67;99.70;99292.66;6279515;22;19939;-76
2020/12/30 02:38:12;;;;;;;;;;;;;;;1.64;99.62;99290.44;6278913;22;19907;-77
2020/12/30 02:40:37;;;;;;;;;;;;;;;1.61;99.42;99293.69;6226269;22;19910;-76
2020/12/30 02:43:02;;;;;;;;;;;;;;;1.60;99.17;99288.50;6251922;22;19951;-76
2020/12/30 02:45:28;;;;;;;;;;;;;;;1.58;99.02;99298.88;6252385;22;19911;-76
2020/12/30 02:47:53;;;;;;;;;;;;;;;1.56;99.09;99299.97;6279408;22;19907;-76
2020/12/30 02:50:18;;;;;;;;;;;;;;;1.54;99.03;99302.16;6251939;22;20335;-76
2020/12/30 02:52:44;;;;;;;;;;;;;;;1.49;98.84;99310.31;6251956;22;19911;-76
2020/12/30 02:55:09;;;;;;;;;;;;;;;1.46;98.76;99308.13;6279253;22;19907;-76
2020/12/30 02:57:34;;;;;;;;;;;;;;;1.41;98.61;99313.53;6252110;22;19938;-76
2020/12/30 03:00:00;;;;;;;;;;;;;;;1.42;98.40;99320.69;6251739;22;19949;-76
2020/12/30 03:02:25;;;;;;;;;;;;;;;1.37;98.45;99320.66;6251921;22;19930;-76
2020/12/30 03:04:51;;;;;;;;;;;;;;;1.36;98.38;99326.38;6252704;22;19903;-76
2020/12/30 03:07:16;;;;;;;;;;;;;;;1.33;98.36;99330.44;6278867;22;19903;-76
2020/12/30 03:09:42;;;;;;;;;;;;;;;1.30;98.45;99320.03;6250911;22;19957;-76
2020/12/30 03:12:07;;;;;;;;;;;;;;;1.27;98.47;99318.66;6279028;22;19914;-75
2020/12/30 03:14:32;;;;;;;;;;;;;;;1.27;98.25;99326.84;6279416;22;19903;-76
2020/12/30 03:16:58;;;;;;;;;;;;;;;1.25;98.44;99329.00;6251902;22;19910;-76
2020/12/30 03:19:23;;;;;;;;;;;;;;;1.21;98.45;99344.31;6251416;22;19911;-77
2020/12/30 03:21:52;;;;;;;;;;;;;;;1.20;98.43;99339.09;6251697;22;19933;-76
2020/12/30 03:24:17;;;;;;;;;;;;;;;1.14;98.48;99340.13;6227418;22;19951;-76
2020/12/30 03:26:42;;;;;;;;;;;;;;;1.16;98.42;99346.19;6251348;22;20387;-77
2020/12/30 03:29:08;;;;;;;;;;;;;;;1.14;98.56;99362.00;6251846;22;19903;-76
2020/12/30 03:31:33;;;;;;;;;;;;;;;1.11;98.57;99364.22;6278685;22;19910;-76
2020/12/30 03:34:00;;;;;;;;;;;;;;;1.12;98.63;99356.81;6278434;22;19909;-77
2020/12/30 03:36:25;;;;;;;;;;;;;;;1.12;98.75;99345.88;6252402;22;20313;-76
2020/12/30 03:38:51;;;;;;;;;;;;;;;1.13;98.69;99353.00;6226240;22;19919;-76
2020/12/30 03:41:16;;;;;;;;;;;;;;;1.14;98.92;99351.06;6200756;22;19903;-76
2020/12/30 03:43:41;;;;;;;;;;;;;;;1.14;98.80;99354.63;6251970;22;20568;-76
2020/12/30 03:46:07;;;;;;;;;;;;;;;1.15;98.92;99350.00;6251426;22;19933;-76
2020/12/30 03:48:32;;;;;;;;;;;;;;;1.13;99.00;99353.00;6278633;22;19903;-77
2020/12/30 03:50:58;;;;;;;;;;;;;;;1.14;98.96;99353.81;6226821;22;20316;-76
2020/12/30 03:53:23;;;;;;;;;;;;;;;1.14;98.87;99346.44;6226970;22;19903;-76
2020/12/30 03:55:48;;;;;;;;;;;;;;;1.12;98.86;99351.34;6278180;22;19927;-76
2020/12/30 03:58:14;;;;;;;;;;;;;;;1.14;98.70;99353.81;6226087;22;19942;-76
2020/12/30 04:00:39;;;;;;;;;;;;;;;1.10;98.53;99354.34;6226566;22;19903;-75
2020/12/30 04:03:04;;;;;;;;;;;;;;;1.08;98.55;99353.75;6201612;22;19933;-76
2020/12/30 04:05:30;;;;;;;;;;;;;;;1.09;98.59;99360.09;6201170;22;20503;-76
2020/12/30 04:07:55;;;;;;;;;;;;;;;1.06;98.64;99369.63;6225807;22;19903;-76
2020/12/30 04:10:20;;;;;;;;;;;;;;;1.07;98.56;99349.38;6226095;22;19907;-76
2020/12/30 04:12:46;;;;;;;;;;;;;;;1.07;98.45;99343.91;6251925;22;19955;-76
2020/12/30 04:15:11;;;;;;;;;;;;;;;1.09;98.57;99357.34;6251433;22;19907;-76
2020/12/30 04:17:36;;;;;;;;;;;;;;;1.08;98.65;99361.16;6226190;22;20334;-76
2020/12/30 04:20:02;;;;;;;;;;;;;;;1.09;98.49;99360.91;6226061;22;19911;-76
2020/12/30 04:22:27;;;;;;;;;;;;;;;1.08;98.52;99367.44;6251687;22;19903;-76
2020/12/30 04:24:52;;;;;;;;;;;;;;;1.02;98.44;99368.47;6278218;22;19910;-75
2020/12/30 04:27:18;;;;;;;;;;;;;;;1.00;98.46;99369.81;6278464;22;19903;-76
2020/12/30 04:29:43;;;;;;;;;;;;;;;1.01;98.36;99383.25;6226555;22;19915;-76
2020/12/30 04:32:08;;;;;;;;;;;;;;;0.96;98.31;99375.00;6253691;22;20277;-75
2020/12/30 04:34:34;;;;;;;;;;;;;;;0.96;98.09;99382.38;6279679;22;19910;-76
2020/12/30 04:36:59;;;;;;;;;;;;;;;0.93;98.14;99386.44;6280388;22;19910;-75
2020/12/30 04:39:24;;;;;;;;;;;;;;;0.88;97.94;99381.75;6252439;22;19915;-76
2020/12/30 04:41:50;;;;;;;;;;;;;;;0.86;98.03;99383.06;6253756;22;19907;-75
2020/12/30 04:44:15;;;;;;;;;;;;;;;0.86;98.10;99375.72;6253454;22;20305;-76
2020/12/30 04:46:41;;;;;;;;;;;;;;;0.85;97.98;99379.53;6227976;22;19974;-75
2020/12/30 04:49:07;;;;;;;;;;;;;;;0.83;97.92;99378.13;6253576;22;19903;-76
2020/12/30 04:51:32;;;;;;;;;;;;;;;0.82;97.98;99384.69;6280701;22;20296;-76
2020/12/30 04:53:58;;;;;;;;;;;;;;;0.81;97.92;99383.06;6279788;22;19903;-76
2020/12/30 04:56:33;;;;;;;;;;;;;;;0.78;97.97;99378.91;6252919;22;19910;-76
2020/12/30 04:58:58;;;;;;;;;;;;;;;0.77;98.01;99381.91;6280013;22;20701;-75
2020/12/30 05:01:23;;;;;;;;;;;;;;;0.75;98.05;99386.78;6228208;22;19957;-75
2020/12/30 05:03:49;;;;;;;;;;;;;;;0.72;98.04;99384.56;6227832;22;19929;-76
2020/12/30 05:06:14;;;;;;;;;;;;;;;0.71;98.15;99385.66;6252727;22;19914;-76
2020/12/30 05:08:40;;;;;;;;;;;;;;;0.69;98.06;99390.56;6252994;22;19985;-76
2020/12/30 05:11:05;;;;;;;;;;;;;;;0.68;97.90;99399.84;6202546;22;19911;-76
2020/12/30 05:13:30;;;;;;;;;;;;;;;0.66;97.87;99397.34;6202767;22;19974;-75
2020/12/30 05:15:59;;;;;;;;;;;;;;;0.62;97.95;99407.16;6227526;22;19903;-75
2020/12/30 05:18:24;;;;;;;;;;;;;;;0.62;97.80;99407.16;6252750;22;19918;-76
2020/12/30 05:20:50;;;;;;;;;;;;;;;0.58;97.79;99408.72;6280223;22;19903;-76
2020/12/30 05:23:15;;;;;;;;;;;;;;;0.54;97.90;99415.81;6252674;22;20320;-76
2020/12/30 05:25:41;;;;;;;;;;;;;;;0.51;98.01;99417.13;6279441;22;19907;-75
2020/12/30 05:28:07;;;;;;;;;;;;;;;0.49;97.92;99424.75;6252823;22;19903;-76
2020/12/30 05:30:32;;;;;;;;;;;;;;;0.48;97.89;99428.56;6253065;22;19903;-75
2020/12/30 05:32:58;;;;;;;;;;;;;;;0.45;97.99;99429.09;6280031;22;20232;-76
2020/12/30 05:35:24;;;;;;;;;;;;;;;0.43;98.00;99434.78;6252454;22;19903;-76
2020/12/30 05:37:49;;;;;;;;;;;;;;;0.40;98.15;99442.69;6227148;22;19903;-76
2020/12/30 05:40:18;;;;;;;;;;;;;;;0.41;98.14;99449.78;6280012;22;19907;-75
2020/12/30 05:42:44;;;;;;;;;;;;;;;0.41;98.16;99444.31;6227326;22;20364;-76
2020/12/30 05:45:09;;;;;;;;;;;;;;;0.40;98.24;99448.13;6227024;22;19903;-76
2020/12/30 05:47:34;;;;;;;;;;;;;;;0.39;98.38;99454.66;6252522;22;19903;-76
2020/12/30 05:50:02;;;;;;;;;;;;;;;0.39;98.37;99452.78;6252765;22;19903;-76
2020/12/30 05:52:28;;;;;;;;;;;;;;;0.42;98.40;99451.44;6227203;22;19943;-76
2020/12/30 05:54:54;;;;;;;;;;;;;;;0.41;98.48;99449.78;6252568;22;19933;-75
2020/12/30 05:57:20;;;;;;;;;;;;;;;0.42;98.55;99454.19;6279216;22;20232;-75
2020/12/30 05:59:45;;;;;;;;;;;;;;;0.43;98.83;99447.63;6252309;22;19911;-75
2020/12/30 06:02:11;;;;;;;;;;;;;;;0.45;98.73;99459.13;6252320;22;19930;-76
2020/12/30 06:04:36;;;;;;;;;;;;;;;0.44;98.82;99458.28;6252495;22;19903;-75
2020/12/30 06:07:02;;;;;;;;;;;;;;;0.48;98.71;99466.81;6252425;22;19910;-76
2020/12/30 06:09:27;;;;;;;;;;;;;;;0.48;98.84;99475.03;6251848;22;19911;-75
2020/12/30 06:11:53;;;;;;;;;;;;;;;0.50;98.74;99472.03;6227226;22;20238;-76
2020/12/30 06:14:19;;;;;;;;;;;;;;;0.51;98.73;99471.78;6279461;22;19910;-76
2020/12/30 06:16:44;;;;;;;;;;;;;;;0.53;98.80;99472.34;6252243;22;19906;-76
2020/12/30 06:19:13;;;;;;;;;;;;;;;0.53;98.78;99482.44;6227328;22;19907;-75
2020/12/30 06:21:45;;;;;;;;;;;;;;;0.56;98.76;99496.44;6227349;22;20339;-76
2020/12/30 06:24:14;;;;;;;;;;;;;;;0.55;98.79;99485.75;6251717;22;19911;-76
2020/12/30 06:26:40;;;;;;;;;;;;;;;0.54;98.93;99493.13;6251835;22;19968;-76
2020/12/30 06:29:15;;;;;;;;;;;;;;;0.59;98.84;99495.94;6251888;22;19903;-76
2020/12/30 06:31:47;;;;;;;;;;;;;;;0.57;98.92;99503.53;6252422;22;19968;-76
2020/12/30 06:34:12;;;;;;;;;;;;;;;0.58;98.80;99499.72;6278520;22;19904;-76
2020/12/30 06:36:38;;;;;;;;;;;;;;;0.59;98.91;99497.84;6252001;22;19903;-73
2020/12/30 06:39:22;;;;;;;;;;;;;;;0.62;99.18;99494.59;6278973;22;19916;-76
2020/12/30 06:41:54;;;;;;;;;;;;;;;0.64;99.34;99495.16;6252339;22;19910;-76
2020/12/30 06:44:35;;;;;;;;;;;;;;;0.65;99.18;99491.34;6252582;22;19978;-75
2020/12/30 06:47:01;;;;;;;;;;;;;;;0.65;99.15;99489.44;6252230;22;19926;-76
2020/12/30 06:49:26;;;;;;;;;;;;;;;0.66;99.24;99491.09;6252213;22;19907;-75
2020/12/30 06:51:51;;;;;;;;;;;;;;;0.66;99.17;99493.81;6227245;22;19969;-75
2020/12/30 06:54:17;;;;;;;;;;;;;;;0.69;99.38;99499.88;6226798;22;20300;-76
2020/12/30 06:56:43;;;;;;;;;;;;;;;0.69;99.45;99522.56;6201455;22;19903;-76
2020/12/30 06:59:08;;;;;;;;;;;;;;;0.71;99.40;99523.13;6226889;22;19907;-76
2020/12/30 07:01:52;;;;;;;;;;;;;;;0.75;99.38;99526.19;6226954;22;19913;-76
2020/12/30 07:04:18;;;;;;;;;;;;;;;0.75;99.37;99527.00;6252101;22;19909;-76
2020/12/30 07:06:43;;;;;;;;;;;;;;;0.74;99.38;99524.53;6226670;22;19926;-76
2020/12/30 07:09:08;;;;;;;;;;;;;;;0.80;99.27;99518.03;6225901;22;19911;-76
2020/12/30 07:11:50;;;;;;;;;;;;;;;0.80;99.45;99520.78;6226525;22;19907;-76
2020/12/30 07:14:19;;;;;;;;;;;;;;;0.78;99.41;99528.41;6252160;22;19990;-76
2020/12/30 07:16:45;;;;;;;;;;;;;;;0.76;99.46;99531.41;6226973;22;19907;-76
2020/12/30 07:19:12;;;;;;;;;;;;;;;0.76;99.32;99527.84;6251983;22;19913;-76
2020/12/30 07:21:47;;;;;;;;;;;;;;;0.82;99.11;99526.81;6251700;22;19934;-76
2020/12/30 07:24:12;;;;;;;;;;;;;;;0.79;98.95;99524.59;6278723;22;19903;-76
2020/12/30 07:26:38;;;;;;;;;;;;;;;0.75;98.97;99534.38;6226282;22;19903;-76
2020/12/30 07:29:03;;;;;;;;;;;;;;;0.75;98.88;99540.66;6251593;22;19903;-76
2020/12/30 07:31:28;;;;;;;;;;;;;;;0.72;98.83;99546.63;6225942;22;19907;-76
2020/12/30 07:33:53;;;;;;;;;;;;;;;0.72;98.74;99554.84;6278155;22;19907;-76
2020/12/30 07:36:19;;;;;;;;;;;;;;;0.70;98.64;99558.91;6252220;22;19917;-76
2020/12/30 07:38:44;;;;;;;;;;;;;;;0.68;98.72;99567.38;6251189;22;19915;-76
2020/12/30 07:41:10;;;;;;;;;;;;;;;0.66;98.73;99573.06;6251056;22;19914;-76
2020/12/30 07:43:45;;;;;;;;;;;;;;;0.66;98.75;99578.53;6201525;22;19903;-76
2020/12/30 07:46:20;;;;;;;;;;;;;;;0.68;98.67;99574.75;6226446;22;19907;-76
2020/12/30 07:48:45;;;;;;;;;;;;;;;0.65;98.74;99581.53;6251611;22;19910;-75
2020/12/30 07:51:12;;;;;;;;;;;;;;;0.64;98.61;99591.66;6251463;22;19903;-77
2020/12/30 07:53:38;;;;;;;;;;;;;;;0.67;98.56;99601.25;6278267;22;20309;-76
2020/12/30 07:56:03;;;;;;;;;;;;;;;0.66;98.64;99596.84;6278739;22;19926;-76
2020/12/30 07:58:29;;;;;;;;;;;;;;;0.61;98.67;99603.09;6279087;22;19914;-76
2020/12/30 08:00:54;;;;;;;;;;;;;;;0.63;98.65;99608.28;6251020;22;19907;-76
2020/12/30 08:03:20;;;;;;;;;;;;;;;0.62;98.76;99607.47;6226071;22;19911;-76
2020/12/30 08:05:45;;;;;;;;;;;;;;;0.63;98.62;99617.31;6279969;22;19903;-76
2020/12/30 08:08:10;;;;;;;;;;;;;;;0.62;98.64;99615.66;6253142;22;19903;-76
2020/12/30 08:10:36;;;;;;;;;;;;;;;0.65;98.70;99617.06;6280658;22;19903;-76
2020/12/30 08:13:11;;;;;;;;;;;;;;;0.64;98.51;99627.16;6253551;22;20297;-76
2020/12/30 08:15:41;;;;;;;;;;;;;;;0.60;98.78;99634.19;6229182;22;20009;-75
2020/12/30 08:18:07;;;;;;;;;;;;;;;0.60;98.69;99636.94;6253436;22;19903;-75
2020/12/30 08:20:36;;;;;;;;;;;;;;;0.62;98.75;99642.16;6227825;22;19903;-75
2020/12/30 08:23:01;;;;;;;;;;;;;;;0.62;98.80;99642.97;6280231;22;19990;-76
2020/12/30 08:25:26;;;;;;;;;;;;;;;0.58;98.84;99647.28;6228122;22;19903;-75
2020/12/30 08:27:52;;;;;;;;;;;;;;;0.62;98.76;99650.34;6281213;22;20236;-76
2020/12/30 08:30:17;;;;;;;;;;;;;;;0.62;98.90;99653.09;6252861;22;19903;-76
2020/12/30 08:33:04;;;;;;;;;;;;;;;0.60;99.09;99645.13;6252601;22;19903;-76
2020/12/30 08:35:30;;;;;;;;;;;;;;;0.60;99.10;99645.13;6227472;22;19911;-76
2020/12/30 08:38:10;;;;;;;;;;;;;;;0.64;99.00;99649.03;6253305;22;19903;-76
2020/12/30 08:40:36;;;;;;;;;;;;;;;0.64;99.03;99656.38;6227511;22;19903;-75
2020/12/30 08:43:04;;;;;;;;;;;;;;;0.66;99.08;99654.22;6253027;22;19930;-76
2020/12/30 08:45:30;;;;;;;;;;;;;;;0.65;99.19;99655.31;6280682;22;20032;-76
2020/12/30 08:47:56;;;;;;;;;;;;;;;0.66;99.25;99655.06;6253248;22;19903;-71
2020/12/30 08:50:23;;;;;;;;;;;;;;;0.68;99.33;99665.75;6253033;22;20021;-75
2020/12/30 08:52:49;;;;;;;;;;;;;;;0.72;99.41;99663.34;6279991;22;19903;-75
2020/12/30 08:55:14;;;;;;;;;;;;;;;0.74;99.34;99662.00;6252981;22;19913;-76
2020/12/30 08:57:45;;;;;;;;;;;;;;;0.79;99.69;99666.75;6227957;22;19903;-75
2020/12/30 09:00:18;;;;;;;;;;;;;;;0.83;99.66;99670.59;6226734;22;20312;-76
2020/12/30 09:02:43;;;;;;;;;;;;;;;0.87;99.50;99663.59;6278616;22;19942;-76
2020/12/30 09:05:09;;;;;;;;;;;;;;;0.93;99.72;99673.50;6227888;22;19903;-76
2020/12/30 09:07:34;;;;;;;;;;;;;;;0.96;99.44;99675.72;6252408;22;20308;-76
2020/12/30 09:10:03;;;;;;;;;;;;;;;1.00;99.71;99679.59;6251995;22;19912;-76
2020/12/30 09:12:28;;;;;;;;;;;;;;;1.03;99.57;99681.88;6279801;22;19994;-76
2020/12/30 09:14:53;;;;;;;;;;;;;;;1.07;99.34;99680.28;6228100;22;19907;-76
2020/12/30 09:17:19;;;;;;;;;;;;;;;1.13;99.55;99680.34;6278755;22;19907;-76
2020/12/30 09:19:44;;;;;;;;;;;;;;;1.17;99.58;99681.47;6279361;22;19911;-76
2020/12/30 09:22:10;;;;;;;;;;;;;;;1.22;99.44;99689.75;6227490;22;19903;-77
2020/12/30 09:24:36;;;;;;;;;;;;;;;1.25;99.33;99681.03;6252388;22;19904;-76
2020/12/30 09:27:20;;;;;;;;;;;;;;;1.30;99.48;99687.41;6202089;22;19903;-76
2020/12/30 09:30:06;;;;;;;;;;;;;;;1.34;99.33;99687.75;6252270;22;19934;-77
2020/12/30 09:32:31;;;;;;;;;;;;;;;1.38;99.20;99677.94;6231912;22;20227;-76
2020/12/30 09:34:57;;;;;;;;;;;;;;;1.45;99.29;99683.22;6252546;22;19929;-76
2020/12/30 09:37:23;;;;;;;;;;;;;;;1.51;99.29;99694.00;6279580;22;19907;-76
2020/12/30 09:39:48;;;;;;;;;;;;;;;1.59;99.35;99691.88;6251890;22;19907;-76
2020/12/30 09:42:19;;;;;;;;;;;;;;;1.67;99.32;99691.44;6252649;22;19982;-77
2020/12/30 09:44:45;;;;;;;;;;;;;;;1.76;99.28;99682.53;6252416;22;20307;-76
2020/12/30 09:47:10;;;;;;;;;;;;;;;1.86;99.14;99680.97;6279454;22;19903;-76
2020/12/30 09:49:36;;;;;;;;;;;;;;;1.95;98.98;99685.75;6252699;22;19925;-76
2020/12/30 09:52:01;;;;;;;;;;;;;;;2.04;98.92;99685.28;6252853;22;19903;-76
2020/12/30 09:54:26;;;;;;;;;;;;;;;2.13;98.89;99690.03;6226001;22;19907;-76
2020/12/30 09:56:52;;;;;;;;;;;;;;;2.23;98.66;99697.53;6279395;22;19903;-78
2020/12/30 09:59:20;;;;;;;;;;;;;;;2.31;98.78;99698.97;6252314;22;19907;-78
2020/12/30 10:01:47;;;;;;;;;;;;;;;2.37;98.91;99696.03;6279672;22;19986;-78
2020/12/30 10:04:12;;;;;;;;;;;;;;;2.44;99.32;99696.63;6279398;22;19954;-78
2020/12/30 10:06:37;;;;;;;;;;;;;;;2.52;99.37;99697.25;6252256;22;19953;-77
2020/12/30 10:09:03;;;;;;;;;;;;;;;2.57;99.08;99703.59;6252157;22;19965;-77
2020/12/30 10:11:28;;;;;;;;;;;;;;;2.65;98.89;99685.84;6226823;22;19934;-78
2020/12/30 10:13:53;;;;;;;;;;;;;;;2.71;98.71;99690.28;6226482;22;19907;-78
2020/12/30 10:16:20;;;;;;;;;;;;;;;2.77;98.57;99689.22;6252276;22;19913;-77
2020/12/30 10:18:45;;;;;;;;;;;;;;;2.85;98.34;99696.97;6280092;22;19911;-78
2020/12/30 10:21:11;;;;;;;;;;;;;;;2.91;98.67;99700.56;6227125;22;19911;-77
2020/12/30 10:23:36;;;;;;;;;;;;;;;2.97;98.54;99698.69;6226541;22;19909;-78
2020/12/30 10:26:01;;;;;;;;;;;;;;;3.02;98.34;99696.00;6279118;22;20316;-77
2020/12/30 10:28:27;;;;;;;;;;;;;;;3.06;98.38;99697.94;6227245;22;19903;-77
2020/12/30 10:30:52;;;;;;;;;;;;;;;3.11;98.30;99695.22;6226683;22;19903;-78
2020/12/30 10:33:17;;;;;;;;;;;;;;;3.15;98.13;99692.78;6251331;22;19903;-78
2020/12/30 10:35:43;;;;;;;;;;;;;;;3.20;98.38;99692.81;6226853;22;20272;-78
2020/12/30 10:38:08;;;;;;;;;;;;;;;3.24;98.45;99693.94;6226745;22;19910;-78
2020/12/30 10:40:33;;;;;;;;;;;;;;;3.29;98.09;99690.41;6201249;22;19903;-78
2020/12/30 10:42:59;;;;;;;;;;;;;;;3.34;98.33;99693.16;6226691;22;19903;-78
2020/12/30 10:45:24;;;;;;;;;;;;;;;3.40;98.09;99688.50;6227104;22;20236;-78
2020/12/30 10:47:49;;;;;;;;;;;;;;;3.47;98.36;99680.88;6201696;22;19903;-78
2020/12/30 10:50:15;;;;;;;;;;;;;;;3.52;98.03;99683.66;6250398;22;19903;-78
2020/12/30 10:52:43;;;;;;;;;;;;;;;3.60;98.49;99691.38;6251576;22;19903;-79
2020/12/30 10:55:09;;;;;;;;;;;;;;;3.68;98.38;99688.13;6200959;22;20006;-78
2020/12/30 10:57:34;;;;;;;;;;;;;;;3.76;98.04;99684.84;6201461;22;19907;-77
2020/12/30 10:59:59;;;;;;;;;;;;;;;3.85;97.95;99687.09;6225274;22;19908;-77
2020/12/30 11:02:25;;;;;;;;;;;;;;;3.93;97.90;99678.31;6250854;22;20224;-78
2020/12/30 11:04:50;;;;;;;;;;;;;;;4.02;97.97;99680.25;6252186;22;19988;-78
2020/12/30 11:07:15;;;;;;;;;;;;;;;4.12;98.14;99676.69;6226736;22;20628;-78
2020/12/30 11:09:41;;;;;;;;;;;;;;;4.21;98.07;99675.06;6251145;22;19934;-78
2020/12/30 11:12:06;;;;;;;;;;;;;;;4.29;98.33;99679.22;6251421;22;19903;-78
2020/12/30 11:14:31;;;;;;;;;;;;;;;4.37;97.83;99681.41;6201368;22;19907;-78
2020/12/30 11:16:57;;;;;;;;;;;;;;;4.47;97.71;99669.59;6201464;22;19910;-78
2020/12/30 11:19:22;;;;;;;;;;;;;;;4.55;97.53;99676.50;6226139;22;20312;-78
2020/12/30 11:21:53;;;;;;;;;;;;;;;4.65;97.50;99666.31;6225817;22;20328;-77
2020/12/30 11:24:19;;;;;;;;;;;;;;;4.75;96.98;99670.16;6225907;22;19903;-78
2020/12/30 11:26:45;;;;;;;;;;;;;;;4.82;96.65;99668.78;6251540;22;19907;-78
2020/12/30 11:29:10;;;;;;;;;;;;;;;4.92;96.62;99667.94;6278603;22;19904;-77
2020/12/30 11:31:36;;;;;;;;;;;;;;;4.99;96.62;99668.47;6251339;22;19935;-78
2020/12/30 11:34:02;;;;;;;;;;;;;;;5.06;96.80;99660.75;6225675;22;20205;-78
2020/12/30 11:36:28;;;;;;;;;;;;;;;5.13;96.87;99658.53;6226680;22;19938;-77
2020/12/30 11:38:53;;;;;;;;;;;;;;;5.18;96.74;99663.19;6200792;22;20571;-77
2020/12/30 11:41:18;;;;;;;;;;;;;;;5.24;96.87;99662.09;6252424;22;20236;-79
2020/12/30 11:43:44;;;;;;;;;;;;;;;5.30;96.68;99660.97;6254045;22;19959;-78
2020/12/30 11:46:09;;;;;;;;;;;;;;;5.36;96.77;99656.28;6228356;22;19910;-78
2020/12/30 11:48:34;;;;;;;;;;;;;;;5.43;96.35;99664.22;6202753;22;19918;-78
2020/12/30 11:51:00;;;;;;;;;;;;;;;5.50;96.37;99651.00;6228467;22;20434;-79
2020/12/30 11:53:25;;;;;;;;;;;;;;;5.56;96.41;99653.44;6227831;22;19974;-77
2020/12/30 11:55:50;;;;;;;;;;;;;;;5.59;96.07;99649.28;6228309;22;19909;-78
2020/12/30 11:58:16;;;;;;;;;;;;;;;5.64;96.45;99643.75;6227881;22;19903;-79
2020/12/30 12:00:41;;;;;;;;;;;;;;;5.68;96.24;99642.09;6253534;22;19903;-79
2020/12/30 12:03:06;;;;;;;;;;;;;;;5.74;96.88;99643.72;6203326;22;19911;-79
2020/12/30 12:05:32;;;;;;;;;;;;;;;5.82;96.57;99634.03;6228387;22;19904;-78
2020/12/30 12:07:57;;;;;;;;;;;;;;;5.87;96.04;99634.00;6228259;22;20309;-78
2020/12/30 12:10:22;;;;;;;;;;;;;;;5.93;96.08;99632.88;6253230;22;19903;-78
2020/12/30 12:12:48;;;;;;;;;;;;;;;5.98;95.44;99629.28;6253937;22;19903;-78
2020/12/30 12:15:14;;;;;;;;;;;;;;;6.02;94.69;99631.19;6228894;22;19903;-78
2020/12/30 12:17:39;;;;;;;;;;;;;;;6.07;94.82;99627.56;6253400;22;19948;-78
2020/12/30 12:20:04;;;;;;;;;;;;;;;6.10;94.67;99620.66;6228319;22;19915;-78
2020/12/30 12:22:30;;;;;;;;;;;;;;;6.14;94.52;99610.72;6253539;22;19903;-78
2020/12/30 12:24:55;;;;;;;;;;;;;;;6.19;94.37;99602.41;6228563;22;20309;-78
2020/12/30 12:27:20;;;;;;;;;;;;;;;6.23;94.66;99609.00;6253364;22;19903;-78
2020/12/30 12:29:47;;;;;;;;;;;;;;;6.26;94.49;99602.91;6228222;22;20330;-79
2020/12/30 12:32:12;;;;;;;;;;;;;;;6.31;95.09;99610.31;6253714;22;20309;-78
2020/12/30 12:34:38;;;;;;;;;;;;;;;6.33;94.30;99603.41;6252898;22;19949;-79
2020/12/30 12:37:05;;;;;;;;;;;;;;;6.35;94.56;99605.84;6253130;22;19980;-79
2020/12/30 12:39:31;;;;;;;;;;;;;;;6.38;94.75;99599.75;6202903;22;20260;-78
2020/12/30 12:41:56;;;;;;;;;;;;;;;6.40;94.01;99598.38;6253578;22;19911;-78
2020/12/30 12:44:22;;;;;;;;;;;;;;;6.42;94.04;99609.13;6203073;22;19903;-78
2020/12/30 12:46:47;;;;;;;;;;;;;;;6.44;94.21;99598.63;6227983;22;19946;-79
2020/12/30 12:49:13;;;;;;;;;;;;;;;6.44;94.18;99601.41;6228088;22;19957;-78